sensor_id;sensor_type;location;lat;lon;timestamp;P1;durP1;ratioP1;P2;durP2;ratioP2
15878;SDS011;61999;51.514;14.614;2023-06-22T00:01:26;8.07;;;7.37;;
15878;SDS011;61999;51.514;14.614;2023-06-22T00:03:54;8.63;;;7.93;;
15878;SDS011;61999;51.514;14.614;2023-06-22T00:06:22;9.97;;;9.00;;
15878;SDS011;61999;51.514;14.614;2023-06-22T00:08:50;8.90;;;8.10;;
15878;SDS011;61999;51.514;14.614;2023-06-22T00:11:18;8.33;;;7.63;;
15878;SDS011;61999;51.514;14.614;2023-06-22T00:13:46;8.33;;;7.63;;
15878;SDS011;61999;51.514;14.614;2023-06-22T00:16:15;8.57;;;7.87;;
15878;SDS011;61999;51.514;14.614;2023-06-22T00:18:45;8.40;;;7.70;;
15878;SDS011;61999;51.514;14.614;2023-06-22T00:21:13;8.27;;;7.60;;
15878;SDS011;61999;51.514;14.614;2023-06-22T00:23:41;8.40;;;7.67;;
15878;SDS011;61999;51.514;14.614;2023-06-22T00:26:09;8.50;;;7.83;;
15878;SDS011;61999;51.514;14.614;2023-06-22T00:28:38;7.83;;;7.17;;
15878;SDS011;61999;51.514;14.614;2023-06-22T00:31:06;8.33;;;7.63;;
15878;SDS011;61999;51.514;14.614;2023-06-22T00:33:34;8.40;;;7.70;;
15878;SDS011;61999;51.514;14.614;2023-06-22T00:36:04;8.50;;;7.80;;
15878;SDS011;61999;51.514;14.614;2023-06-22T00:38:33;8.80;;;8.07;;
15878;SDS011;61999;51.514;14.614;2023-06-22T00:41:06;8.60;;;7.90;;
15878;SDS011;61999;51.514;14.614;2023-06-22T00:43:34;8.10;;;7.40;;
15878;SDS011;61999;51.514;14.614;2023-06-22T00:46:02;8.27;;;7.57;;
15878;SDS011;61999;51.514;14.614;2023-06-22T00:48:30;9.43;;;7.90;;
15878;SDS011;61999;51.514;14.614;2023-06-22T00:50:58;8.70;;;8.00;;
15878;SDS011;61999;51.514;14.614;2023-06-22T00:53:28;8.80;;;8.03;;
15878;SDS011;61999;51.514;14.614;2023-06-22T00:56:01;9.20;;;8.50;;
15878;SDS011;61999;51.514;14.614;2023-06-22T00:58:29;9.10;;;8.40;;
15878;SDS011;61999;51.514;14.614;2023-06-22T01:00:58;8.43;;;7.73;;
15878;SDS011;61999;51.514;14.614;2023-06-22T01:03:26;9.37;;;8.57;;
15878;SDS011;61999;51.514;14.614;2023-06-22T01:05:55;8.23;;;7.53;;
15878;SDS011;61999;51.514;14.614;2023-06-22T01:08:38;9.27;;;8.50;;
15878;SDS011;61999;51.514;14.614;2023-06-22T01:11:12;9.53;;;8.73;;
15878;SDS011;61999;51.514;14.614;2023-06-22T01:13:50;8.93;;;8.23;;
15878;SDS011;61999;51.514;14.614;2023-06-22T01:16:29;9.70;;;8.80;;
15878;SDS011;61999;51.514;14.614;2023-06-22T01:19:01;9.93;;;9.13;;
15878;SDS011;61999;51.514;14.614;2023-06-22T01:21:54;8.80;;;8.10;;
15878;SDS011;61999;51.514;14.614;2023-06-22T01:24:27;8.30;;;7.60;;
15878;SDS011;61999;51.514;14.614;2023-06-22T01:27:09;9.90;;;9.10;;
15878;SDS011;61999;51.514;14.614;2023-06-22T01:30:00;9.40;;;8.60;;
15878;SDS011;61999;51.514;14.614;2023-06-22T01:32:32;10.07;;;9.17;;
15878;SDS011;61999;51.514;14.614;2023-06-22T01:35:04;9.33;;;8.63;;
15878;SDS011;61999;51.514;14.614;2023-06-22T01:37:35;9.20;;;8.50;;
15878;SDS011;61999;51.514;14.614;2023-06-22T01:40:05;9.70;;;8.90;;
15878;SDS011;61999;51.514;14.614;2023-06-22T01:42:36;10.40;;;9.50;;
15878;SDS011;61999;51.514;14.614;2023-06-22T01:45:07;10.60;;;9.80;;
15878;SDS011;61999;51.514;14.614;2023-06-22T01:47:38;9.80;;;8.93;;
15878;SDS011;61999;51.514;14.614;2023-06-22T01:50:07;10.50;;;9.60;;
15878;SDS011;61999;51.514;14.614;2023-06-22T01:52:36;11.30;;;10.40;;
15878;SDS011;61999;51.514;14.614;2023-06-22T01:55:04;9.70;;;8.90;;
15878;SDS011;61999;51.514;14.614;2023-06-22T01:57:34;10.33;;;9.53;;
15878;SDS011;61999;51.514;14.614;2023-06-22T02:00:04;10.47;;;9.67;;
15878;SDS011;61999;51.514;14.614;2023-06-22T02:02:41;10.50;;;9.60;;
15878;SDS011;61999;51.514;14.614;2023-06-22T02:05:18;10.83;;;9.93;;
15878;SDS011;61999;51.514;14.614;2023-06-22T02:07:49;11.67;;;10.77;;
15878;SDS011;61999;51.514;14.614;2023-06-22T02:10:25;12.10;;;11.10;;
15878;SDS011;61999;51.514;14.614;2023-06-22T02:12:56;11.33;;;10.43;;
15878;SDS011;61999;51.514;14.614;2023-06-22T02:15:27;11.80;;;10.80;;
15878;SDS011;61999;51.514;14.614;2023-06-22T02:17:56;10.07;;;9.37;;
15878;SDS011;61999;51.514;14.614;2023-06-22T02:20:24;11.00;;;10.10;;
15878;SDS011;61999;51.514;14.614;2023-06-22T02:22:52;10.60;;;9.70;;
15878;SDS011;61999;51.514;14.614;2023-06-22T02:25:20;11.17;;;10.37;;
15878;SDS011;61999;51.514;14.614;2023-06-22T02:27:49;11.10;;;10.20;;
15878;SDS011;61999;51.514;14.614;2023-06-22T02:30:16;11.07;;;10.17;;
15878;SDS011;61999;51.514;14.614;2023-06-22T02:32:46;12.27;;;11.37;;
15878;SDS011;61999;51.514;14.614;2023-06-22T02:35:14;11.20;;;10.30;;
15878;SDS011;61999;51.514;14.614;2023-06-22T02:37:42;11.67;;;10.67;;
15878;SDS011;61999;51.514;14.614;2023-06-22T02:40:10;11.17;;;10.27;;
15878;SDS011;61999;51.514;14.614;2023-06-22T02:42:39;12.30;;;11.40;;
15878;SDS011;61999;51.514;14.614;2023-06-22T02:45:07;12.60;;;11.60;;
15878;SDS011;61999;51.514;14.614;2023-06-22T02:47:36;12.30;;;11.30;;
15878;SDS011;61999;51.514;14.614;2023-06-22T02:50:06;11.43;;;10.53;;
15878;SDS011;61999;51.514;14.614;2023-06-22T02:52:35;13.60;;;12.50;;
15878;SDS011;61999;51.514;14.614;2023-06-22T02:55:05;11.93;;;11.00;;
15878;SDS011;61999;51.514;14.614;2023-06-22T02:57:34;12.17;;;11.17;;
15878;SDS011;61999;51.514;14.614;2023-06-22T03:00:03;11.97;;;10.97;;
15878;SDS011;61999;51.514;14.614;2023-06-22T03:02:43;12.23;;;11.23;;
15878;SDS011;61999;51.514;14.614;2023-06-22T03:05:13;12.40;;;11.40;;
15878;SDS011;61999;51.514;14.614;2023-06-22T03:07:44;12.47;;;11.47;;
15878;SDS011;61999;51.514;14.614;2023-06-22T03:10:13;12.17;;;11.17;;
15878;SDS011;61999;51.514;14.614;2023-06-22T03:12:43;11.97;;;11.07;;
15878;SDS011;61999;51.514;14.614;2023-06-22T03:15:11;11.97;;;10.97;;
15878;SDS011;61999;51.514;14.614;2023-06-22T03:17:40;12.43;;;11.43;;
15878;SDS011;61999;51.514;14.614;2023-06-22T03:20:08;11.60;;;10.70;;
15878;SDS011;61999;51.514;14.614;2023-06-22T03:22:39;11.30;;;10.50;;
15878;SDS011;61999;51.514;14.614;2023-06-22T03:25:10;11.27;;;10.47;;
15878;SDS011;61999;51.514;14.614;2023-06-22T03:27:39;11.97;;;11.07;;
15878;SDS011;61999;51.514;14.614;2023-06-22T03:30:08;13.50;;;12.47;;
15878;SDS011;61999;51.514;14.614;2023-06-22T03:32:38;13.50;;;12.40;;
15878;SDS011;61999;51.514;14.614;2023-06-22T03:35:07;11.97;;;11.03;;
15878;SDS011;61999;51.514;14.614;2023-06-22T03:37:36;12.30;;;11.40;;
15878;SDS011;61999;51.514;14.614;2023-06-22T03:40:06;12.63;;;11.67;;
15878;SDS011;61999;51.514;14.614;2023-06-22T03:42:36;12.30;;;11.30;;
15878;SDS011;61999;51.514;14.614;2023-06-22T03:45:04;13.77;;;12.70;;
15878;SDS011;61999;51.514;14.614;2023-06-22T03:47:33;12.63;;;11.63;;
15878;SDS011;61999;51.514;14.614;2023-06-22T03:50:01;12.63;;;11.63;;
15878;SDS011;61999;51.514;14.614;2023-06-22T03:52:30;13.07;;;11.97;;
15878;SDS011;61999;51.514;14.614;2023-06-22T03:54:58;12.90;;;11.90;;
15878;SDS011;61999;51.514;14.614;2023-06-22T03:57:28;12.27;;;11.30;;
15878;SDS011;61999;51.514;14.614;2023-06-22T03:59:56;13.27;;;12.17;;
15878;SDS011;61999;51.514;14.614;2023-06-22T04:02:25;12.63;;;11.53;;
15878;SDS011;61999;51.514;14.614;2023-06-22T04:04:53;12.37;;;11.47;;
15878;SDS011;61999;51.514;14.614;2023-06-22T04:07:21;12.77;;;11.67;;
15878;SDS011;61999;51.514;14.614;2023-06-22T04:09:49;12.93;;;11.93;;
15878;SDS011;61999;51.514;14.614;2023-06-22T04:12:17;12.43;;;11.53;;
15878;SDS011;61999;51.514;14.614;2023-06-22T04:14:46;13.37;;;12.27;;
15878;SDS011;61999;51.514;14.614;2023-06-22T04:17:14;14.30;;;13.20;;
15878;SDS011;61999;51.514;14.614;2023-06-22T04:19:43;13.73;;;12.63;;
15878;SDS011;61999;51.514;14.614;2023-06-22T04:22:11;13.97;;;12.87;;
15878;SDS011;61999;51.514;14.614;2023-06-22T04:24:39;15.53;;;14.33;;
15878;SDS011;61999;51.514;14.614;2023-06-22T04:27:07;14.20;;;13.10;;
15878;SDS011;61999;51.514;14.614;2023-06-22T04:29:37;14.23;;;13.13;;
15878;SDS011;61999;51.514;14.614;2023-06-22T04:32:16;14.93;;;13.73;;
15878;SDS011;61999;51.514;14.614;2023-06-22T04:34:44;13.67;;;12.57;;
15878;SDS011;61999;51.514;14.614;2023-06-22T04:37:12;13.63;;;12.53;;
15878;SDS011;61999;51.514;14.614;2023-06-22T04:39:41;13.30;;;12.20;;
15878;SDS011;61999;51.514;14.614;2023-06-22T04:42:09;12.67;;;11.67;;
15878;SDS011;61999;51.514;14.614;2023-06-22T04:44:39;11.70;;;10.80;;
15878;SDS011;61999;51.514;14.614;2023-06-22T04:47:08;11.93;;;11.00;;
15878;SDS011;61999;51.514;14.614;2023-06-22T04:49:37;11.50;;;10.60;;
15878;SDS011;61999;51.514;14.614;2023-06-22T04:52:07;11.70;;;10.73;;
15878;SDS011;61999;51.514;14.614;2023-06-22T04:54:37;10.47;;;9.63;;
15878;SDS011;61999;51.514;14.614;2023-06-22T04:57:14;9.87;;;9.07;;
15878;SDS011;61999;51.514;14.614;2023-06-22T04:59:42;10.13;;;9.23;;
15878;SDS011;61999;51.514;14.614;2023-06-22T05:02:10;10.10;;;9.30;;
15878;SDS011;61999;51.514;14.614;2023-06-22T05:04:39;9.67;;;8.87;;
15878;SDS011;61999;51.514;14.614;2023-06-22T05:07:07;9.70;;;8.90;;
15878;SDS011;61999;51.514;14.614;2023-06-22T05:09:36;10.07;;;9.10;;
15878;SDS011;61999;51.514;14.614;2023-06-22T05:12:04;10.23;;;9.40;;
15878;SDS011;61999;51.514;14.614;2023-06-22T05:14:36;9.23;;;8.53;;
15878;SDS011;61999;51.514;14.614;2023-06-22T05:17:04;9.57;;;8.87;;
15878;SDS011;61999;51.514;14.614;2023-06-22T05:19:42;9.50;;;8.80;;
15878;SDS011;61999;51.514;14.614;2023-06-22T05:22:11;9.33;;;8.53;;
15878;SDS011;61999;51.514;14.614;2023-06-22T05:24:39;9.80;;;8.80;;
15878;SDS011;61999;51.514;14.614;2023-06-22T05:27:07;9.70;;;8.93;;
15878;SDS011;61999;51.514;14.614;2023-06-22T05:29:35;9.67;;;8.87;;
15878;SDS011;61999;51.514;14.614;2023-06-22T05:32:03;10.77;;;9.87;;
15878;SDS011;61999;51.514;14.614;2023-06-22T05:34:32;11.13;;;10.33;;
15878;SDS011;61999;51.514;14.614;2023-06-22T05:37:02;11.57;;;10.67;;
15878;SDS011;61999;51.514;14.614;2023-06-22T05:39:30;12.40;;;11.17;;
15878;SDS011;61999;51.514;14.614;2023-06-22T05:41:58;12.77;;;11.73;;
15878;SDS011;61999;51.514;14.614;2023-06-22T05:44:26;11.43;;;10.43;;
15878;SDS011;61999;51.514;14.614;2023-06-22T05:46:54;12.03;;;11.03;;
15878;SDS011;61999;51.514;14.614;2023-06-22T05:49:22;13.33;;;12.13;;
15878;SDS011;61999;51.514;14.614;2023-06-22T05:51:55;13.67;;;12.57;;
15878;SDS011;61999;51.514;14.614;2023-06-22T05:54:25;12.30;;;11.30;;
15878;SDS011;61999;51.514;14.614;2023-06-22T05:56:54;12.23;;;11.03;;
15878;SDS011;61999;51.514;14.614;2023-06-22T05:59:22;12.30;;;11.23;;
15878;SDS011;61999;51.514;14.614;2023-06-22T06:01:50;12.63;;;11.60;;
15878;SDS011;61999;51.514;14.614;2023-06-22T06:04:18;12.00;;;11.00;;
15878;SDS011;61999;51.514;14.614;2023-06-22T06:06:47;12.37;;;11.37;;
15878;SDS011;61999;51.514;14.614;2023-06-22T06:09:14;11.97;;;10.97;;
15878;SDS011;61999;51.514;14.614;2023-06-22T06:11:44;11.57;;;10.67;;
15878;SDS011;61999;51.514;14.614;2023-06-22T06:14:12;11.73;;;10.80;;
15878;SDS011;61999;51.514;14.614;2023-06-22T06:16:40;10.97;;;10.00;;
15878;SDS011;61999;51.514;14.614;2023-06-22T06:19:08;10.50;;;9.63;;
15878;SDS011;61999;51.514;14.614;2023-06-22T06:21:36;10.83;;;9.93;;
15878;SDS011;61999;51.514;14.614;2023-06-22T06:24:04;10.47;;;9.57;;
15878;SDS011;61999;51.514;14.614;2023-06-22T06:26:32;11.13;;;10.07;;
15878;SDS011;61999;51.514;14.614;2023-06-22T06:29:03;10.20;;;9.37;;
15878;SDS011;61999;51.514;14.614;2023-06-22T06:31:31;9.03;;;8.33;;
15878;SDS011;61999;51.514;14.614;2023-06-22T06:33:59;9.50;;;8.70;;
15878;SDS011;61999;51.514;14.614;2023-06-22T06:36:27;10.30;;;9.50;;
15878;SDS011;61999;51.514;14.614;2023-06-22T06:38:55;10.13;;;9.30;;
15878;SDS011;61999;51.514;14.614;2023-06-22T06:41:23;9.50;;;8.70;;
15878;SDS011;61999;51.514;14.614;2023-06-22T06:43:51;9.27;;;8.47;;
15878;SDS011;61999;51.514;14.614;2023-06-22T06:46:21;8.53;;;7.83;;
15878;SDS011;61999;51.514;14.614;2023-06-22T06:48:49;10.40;;;9.50;;
15878;SDS011;61999;51.514;14.614;2023-06-22T06:51:16;9.90;;;9.00;;
15878;SDS011;61999;51.514;14.614;2023-06-22T06:53:44;10.27;;;9.37;;
15878;SDS011;61999;51.514;14.614;2023-06-22T06:56:12;9.70;;;8.90;;
15878;SDS011;61999;51.514;14.614;2023-06-22T06:58:40;9.70;;;8.87;;
15878;SDS011;61999;51.514;14.614;2023-06-22T07:01:11;9.60;;;8.80;;
15878;SDS011;61999;51.514;14.614;2023-06-22T07:03:40;9.50;;;8.70;;
15878;SDS011;61999;51.514;14.614;2023-06-22T07:06:08;8.83;;;8.13;;
15878;SDS011;61999;51.514;14.614;2023-06-22T07:08:36;9.33;;;8.47;;
15878;SDS011;61999;51.514;14.614;2023-06-22T07:11:06;10.13;;;9.33;;
15878;SDS011;61999;51.514;14.614;2023-06-22T07:13:34;10.60;;;9.77;;
15878;SDS011;61999;51.514;14.614;2023-06-22T07:16:02;9.93;;;9.13;;
15878;SDS011;61999;51.514;14.614;2023-06-22T07:18:30;10.83;;;9.93;;
15878;SDS011;61999;51.514;14.614;2023-06-22T07:20:59;10.07;;;9.27;;
15878;SDS011;61999;51.514;14.614;2023-06-22T07:23:27;9.73;;;8.97;;
15878;SDS011;61999;51.514;14.614;2023-06-22T07:25:55;11.17;;;10.17;;
15878;SDS011;61999;51.514;14.614;2023-06-22T07:28:23;9.87;;;9.07;;
15878;SDS011;61999;51.514;14.614;2023-06-22T07:30:51;10.53;;;9.50;;
15878;SDS011;61999;51.514;14.614;2023-06-22T07:33:19;9.70;;;8.90;;
15878;SDS011;61999;51.514;14.614;2023-06-22T07:35:47;8.80;;;8.10;;
15878;SDS011;61999;51.514;14.614;2023-06-22T07:38:18;9.47;;;8.67;;
15878;SDS011;61999;51.514;14.614;2023-06-22T07:40:46;8.57;;;7.93;;
15878;SDS011;61999;51.514;14.614;2023-06-22T07:43:14;8.80;;;7.90;;
15878;SDS011;61999;51.514;14.614;2023-06-22T07:45:47;9.00;;;8.20;;
15878;SDS011;61999;51.514;14.614;2023-06-22T07:48:19;8.80;;;8.10;;
15878;SDS011;61999;51.514;14.614;2023-06-22T07:50:48;8.70;;;8.00;;
15878;SDS011;61999;51.514;14.614;2023-06-22T07:53:16;8.23;;;7.53;;
15878;SDS011;61999;51.514;14.614;2023-06-22T07:55:46;9.20;;;8.50;;
15878;SDS011;61999;51.514;14.614;2023-06-22T07:58:15;9.83;;;9.03;;
15878;SDS011;61999;51.514;14.614;2023-06-22T08:00:45;8.13;;;7.53;;
15878;SDS011;61999;51.514;14.614;2023-06-22T08:03:15;7.87;;;7.27;;
15878;SDS011;61999;51.514;14.614;2023-06-22T08:05:43;7.77;;;7.07;;
15878;SDS011;61999;51.514;14.614;2023-06-22T08:08:11;8.57;;;7.87;;
15878;SDS011;61999;51.514;14.614;2023-06-22T08:10:42;8.10;;;7.33;;
15878;SDS011;61999;51.514;14.614;2023-06-22T08:13:10;8.67;;;8.07;;
15878;SDS011;61999;51.514;14.614;2023-06-22T08:15:38;8.80;;;8.07;;
15878;SDS011;61999;51.514;14.614;2023-06-22T08:18:06;8.43;;;7.70;;
15878;SDS011;61999;51.514;14.614;2023-06-22T08:20:34;8.07;;;7.37;;
15878;SDS011;61999;51.514;14.614;2023-06-22T08:23:02;9.10;;;8.40;;
15878;SDS011;61999;51.514;14.614;2023-06-22T08:25:32;8.40;;;7.70;;
15878;SDS011;61999;51.514;14.614;2023-06-22T08:28:02;8.03;;;7.43;;
15878;SDS011;61999;51.514;14.614;2023-06-22T08:30:31;8.47;;;7.77;;
15878;SDS011;61999;51.514;14.614;2023-06-22T08:32:59;7.20;;;6.70;;
15878;SDS011;61999;51.514;14.614;2023-06-22T08:35:27;7.57;;;6.87;;
15878;SDS011;61999;51.514;14.614;2023-06-22T08:37:55;7.60;;;7.00;;
15878;SDS011;61999;51.514;14.614;2023-06-22T08:40:24;8.13;;;7.53;;
15878;SDS011;61999;51.514;14.614;2023-06-22T08:42:53;6.90;;;6.40;;
15878;SDS011;61999;51.514;14.614;2023-06-22T08:45:22;6.23;;;5.73;;
15878;SDS011;61999;51.514;14.614;2023-06-22T08:47:50;6.90;;;6.40;;
15878;SDS011;61999;51.514;14.614;2023-06-22T08:50:18;7.17;;;6.57;;
15878;SDS011;61999;51.514;14.614;2023-06-22T08:52:46;7.50;;;7.00;;
15878;SDS011;61999;51.514;14.614;2023-06-22T08:55:14;6.63;;;6.13;;
15878;SDS011;61999;51.514;14.614;2023-06-22T08:57:42;6.50;;;6.10;;
15878;SDS011;61999;51.514;14.614;2023-06-22T09:00:10;6.30;;;5.75;;
15878;SDS011;61999;51.514;14.614;2023-06-22T09:02:45;7.45;;;6.85;;
15878;SDS011;61999;51.514;14.614;2023-06-22T09:05:14;6.85;;;6.35;;
15878;SDS011;61999;51.514;14.614;2023-06-22T09:07:43;7.18;;;6.65;;
15878;SDS011;61999;51.514;14.614;2023-06-22T09:10:11;7.63;;;7.13;;
15878;SDS011;61999;51.514;14.614;2023-06-22T09:12:39;8.38;;;7.68;;
15878;SDS011;61999;51.514;14.614;2023-06-22T09:15:08;7.30;;;6.77;;
15878;SDS011;61999;51.514;14.614;2023-06-22T09:17:38;7.68;;;7.13;;
15878;SDS011;61999;51.514;14.614;2023-06-22T09:20:09;7.47;;;6.88;;
15878;SDS011;61999;51.514;14.614;2023-06-22T09:22:38;7.25;;;6.65;;
15878;SDS011;61999;51.514;14.614;2023-06-22T09:25:06;7.55;;;6.95;;
15878;SDS011;61999;51.514;14.614;2023-06-22T09:27:35;7.70;;;7.10;;
15878;SDS011;61999;51.514;14.614;2023-06-22T09:30:04;8.70;;;8.00;;
15878;SDS011;61999;51.514;14.614;2023-06-22T09:32:33;7.50;;;7.00;;
15878;SDS011;61999;51.514;14.614;2023-06-22T09:35:03;8.00;;;7.30;;
15878;SDS011;61999;51.514;14.614;2023-06-22T09:37:34;8.35;;;7.75;;
15878;SDS011;61999;51.514;14.614;2023-06-22T09:40:02;8.13;;;7.50;;
15878;SDS011;61999;51.514;14.614;2023-06-22T09:42:35;7.03;;;6.50;;
15878;SDS011;61999;51.514;14.614;2023-06-22T09:45:03;7.00;;;6.53;;
15878;SDS011;61999;51.514;14.614;2023-06-22T09:47:32;6.80;;;6.30;;
15878;SDS011;61999;51.514;14.614;2023-06-22T09:50:00;6.70;;;6.20;;
15878;SDS011;61999;51.514;14.614;2023-06-22T09:52:28;6.82;;;6.28;;
15878;SDS011;61999;51.514;14.614;2023-06-22T09:55:01;6.97;;;6.47;;
15878;SDS011;61999;51.514;14.614;2023-06-22T09:57:30;7.05;;;6.55;;
15878;SDS011;61999;51.514;14.614;2023-06-22T09:59:58;7.65;;;7.15;;
15878;SDS011;61999;51.514;14.614;2023-06-22T10:02:25;7.45;;;6.93;;
15878;SDS011;61999;51.514;14.614;2023-06-22T10:04:54;6.80;;;6.30;;
15878;SDS011;61999;51.514;14.614;2023-06-22T10:07:22;6.35;;;5.90;;
15878;SDS011;61999;51.514;14.614;2023-06-22T10:09:50;6.97;;;6.47;;
15878;SDS011;61999;51.514;14.614;2023-06-22T10:12:19;6.20;;;5.80;;
15878;SDS011;61999;51.514;14.614;2023-06-22T10:14:47;6.70;;;6.18;;
15878;SDS011;61999;51.514;14.614;2023-06-22T10:17:15;6.85;;;6.35;;
15878;SDS011;61999;51.514;14.614;2023-06-22T10:19:43;7.43;;;6.93;;
15878;SDS011;61999;51.514;14.614;2023-06-22T10:22:11;7.50;;;7.00;;
15878;SDS011;61999;51.514;14.614;2023-06-22T10:24:39;7.28;;;6.75;;
15878;SDS011;61999;51.514;14.614;2023-06-22T10:27:10;7.13;;;6.63;;
15878;SDS011;61999;51.514;14.614;2023-06-22T10:29:41;7.43;;;6.93;;
15878;SDS011;61999;51.514;14.614;2023-06-22T10:32:09;6.97;;;6.47;;
15878;SDS011;61999;51.514;14.614;2023-06-22T10:34:37;6.80;;;6.40;;
15878;SDS011;61999;51.514;14.614;2023-06-22T10:37:05;5.82;;;5.43;;
15878;SDS011;61999;51.514;14.614;2023-06-22T10:39:33;6.35;;;5.85;;
15878;SDS011;61999;51.514;14.614;2023-06-22T10:42:01;6.65;;;6.05;;
15878;SDS011;61999;51.514;14.614;2023-06-22T10:44:29;6.55;;;6.05;;
15878;SDS011;61999;51.514;14.614;2023-06-22T10:46:58;6.75;;;6.35;;
15878;SDS011;61999;51.514;14.614;2023-06-22T10:49:26;6.78;;;6.20;;
15878;SDS011;61999;51.514;14.614;2023-06-22T10:51:54;6.72;;;6.22;;
15878;SDS011;61999;51.514;14.614;2023-06-22T10:54:22;7.07;;;6.57;;
15878;SDS011;61999;51.514;14.614;2023-06-22T10:56:50;6.60;;;6.20;;
15878;SDS011;61999;51.514;14.614;2023-06-22T10:59:18;6.53;;;6.13;;
15878;SDS011;61999;51.514;14.614;2023-06-22T11:01:47;6.82;;;6.32;;
15878;SDS011;61999;51.514;14.614;2023-06-22T11:04:16;6.75;;;6.28;;
15878;SDS011;61999;51.514;14.614;2023-06-22T11:06:44;7.05;;;6.55;;
15878;SDS011;61999;51.514;14.614;2023-06-22T11:09:12;6.57;;;6.18;;
15878;SDS011;61999;51.514;14.614;2023-06-22T11:11:48;6.78;;;6.18;;
15878;SDS011;61999;51.514;14.614;2023-06-22T11:14:19;6.68;;;6.28;;
15878;SDS011;61999;51.514;14.614;2023-06-22T11:16:47;6.82;;;6.32;;
15878;SDS011;61999;51.514;14.614;2023-06-22T11:19:17;6.65;;;6.15;;
15878;SDS011;61999;51.514;14.614;2023-06-22T11:21:45;6.88;;;6.47;;
15878;SDS011;61999;51.514;14.614;2023-06-22T11:24:13;6.88;;;6.38;;
15878;SDS011;61999;51.514;14.614;2023-06-22T11:26:42;7.43;;;6.93;;
15878;SDS011;61999;51.514;14.614;2023-06-22T11:29:10;7.35;;;6.88;;
15878;SDS011;61999;51.514;14.614;2023-06-22T11:31:41;7.47;;;6.97;;
15878;SDS011;61999;51.514;14.614;2023-06-22T11:34:09;8.45;;;7.95;;
15878;SDS011;61999;51.514;14.614;2023-06-22T11:36:39;7.40;;;6.90;;
15878;SDS011;61999;51.514;14.614;2023-06-22T11:39:07;8.10;;;7.43;;
15878;SDS011;61999;51.514;14.614;2023-06-22T11:41:37;8.75;;;8.15;;
15878;SDS011;61999;51.514;14.614;2023-06-22T11:44:05;9.15;;;8.45;;
15878;SDS011;61999;51.514;14.614;2023-06-22T11:46:33;9.05;;;8.45;;
15878;SDS011;61999;51.514;14.614;2023-06-22T11:49:02;8.52;;;7.95;;
15878;SDS011;61999;51.514;14.614;2023-06-22T11:51:30;9.20;;;8.60;;
15878;SDS011;61999;51.514;14.614;2023-06-22T11:53:59;8.43;;;7.93;;
15878;SDS011;61999;51.514;14.614;2023-06-22T11:56:28;7.82;;;7.32;;
15878;SDS011;61999;51.514;14.614;2023-06-22T11:58:56;7.15;;;6.75;;
15878;SDS011;61999;51.514;14.614;2023-06-22T12:01:24;7.03;;;6.53;;
15878;SDS011;61999;51.514;14.614;2023-06-22T12:03:52;7.18;;;6.78;;
15878;SDS011;61999;51.514;14.614;2023-06-22T12:06:20;7.50;;;7.00;;
15878;SDS011;61999;51.514;14.614;2023-06-22T12:08:48;7.35;;;6.90;;
15878;SDS011;61999;51.514;14.614;2023-06-22T12:11:17;8.80;;;8.30;;
15878;SDS011;61999;51.514;14.614;2023-06-22T12:13:45;9.27;;;8.65;;
15878;SDS011;61999;51.514;14.614;2023-06-22T12:16:13;8.63;;;8.13;;
15878;SDS011;61999;51.514;14.614;2023-06-22T12:18:41;10.23;;;8.45;;
15878;SDS011;61999;51.514;14.614;2023-06-22T12:21:09;8.68;;;8.07;;
15878;SDS011;61999;51.514;14.614;2023-06-22T12:23:37;10.07;;;9.38;;
15878;SDS011;61999;51.514;14.614;2023-06-22T12:26:05;8.00;;;7.60;;
15878;SDS011;61999;51.514;14.614;2023-06-22T12:28:34;7.95;;;7.45;;
15878;SDS011;61999;51.514;14.614;2023-06-22T12:31:02;7.82;;;7.32;;
15878;SDS011;61999;51.514;14.614;2023-06-22T12:33:30;7.57;;;7.18;;
15878;SDS011;61999;51.514;14.614;2023-06-22T12:35:58;7.65;;;7.25;;
15878;SDS011;61999;51.514;14.614;2023-06-22T12:38:26;7.43;;;6.93;;
15878;SDS011;61999;51.514;14.614;2023-06-22T12:40:54;7.18;;;6.78;;
15878;SDS011;61999;51.514;14.614;2023-06-22T12:43:22;8.23;;;7.72;;
15878;SDS011;61999;51.514;14.614;2023-06-22T12:45:51;7.78;;;7.28;;
15878;SDS011;61999;51.514;14.614;2023-06-22T12:48:21;8.15;;;7.55;;
15878;SDS011;61999;51.514;14.614;2023-06-22T12:50:49;7.47;;;7.00;;
15878;SDS011;61999;51.514;14.614;2023-06-22T12:53:17;7.07;;;6.68;;
15878;SDS011;61999;51.514;14.614;2023-06-22T12:55:45;8.27;;;7.78;;
15878;SDS011;61999;51.514;14.614;2023-06-22T12:58:13;8.27;;;7.78;;
15878;SDS011;61999;51.514;14.614;2023-06-22T13:00:41;9.50;;;8.90;;
15878;SDS011;61999;51.514;14.614;2023-06-22T13:03:11;7.30;;;6.85;;
15878;SDS011;61999;51.514;14.614;2023-06-22T13:05:39;7.13;;;6.72;;
15878;SDS011;61999;51.514;14.614;2023-06-22T13:08:07;7.60;;;7.15;;
15878;SDS011;61999;51.514;14.614;2023-06-22T13:10:37;6.95;;;6.55;;
15878;SDS011;61999;51.514;14.614;2023-06-22T13:13:05;6.47;;;6.15;;
15878;SDS011;61999;51.514;14.614;2023-06-22T13:15:33;6.68;;;6.28;;
15878;SDS011;61999;51.514;14.614;2023-06-22T13:18:01;6.78;;;6.38;;
15878;SDS011;61999;51.514;14.614;2023-06-22T13:20:31;5.85;;;5.55;;
15878;SDS011;61999;51.514;14.614;2023-06-22T13:22:59;6.82;;;6.43;;
15878;SDS011;61999;51.514;14.614;2023-06-22T13:25:27;6.68;;;6.38;;
15878;SDS011;61999;51.514;14.614;2023-06-22T13:27:55;6.55;;;6.25;;
15878;SDS011;61999;51.514;14.614;2023-06-22T13:30:23;7.68;;;7.28;;
15878;SDS011;61999;51.514;14.614;2023-06-22T13:32:51;6.88;;;6.47;;
15878;SDS011;61999;51.514;14.614;2023-06-22T13:35:19;6.45;;;6.07;;
15878;SDS011;61999;51.514;14.614;2023-06-22T13:37:48;6.70;;;6.35;;
15878;SDS011;61999;51.514;14.614;2023-06-22T13:40:16;6.78;;;6.47;;
15878;SDS011;61999;51.514;14.614;2023-06-22T13:42:44;6.22;;;5.93;;
15878;SDS011;61999;51.514;14.614;2023-06-22T13:45:12;6.38;;;6.05;;
15878;SDS011;61999;51.514;14.614;2023-06-22T13:47:42;7.28;;;6.72;;
15878;SDS011;61999;51.514;14.614;2023-06-22T13:50:10;6.95;;;6.60;;
15878;SDS011;61999;51.514;14.614;2023-06-22T13:52:39;8.32;;;7.82;;
15878;SDS011;61999;51.514;14.614;2023-06-22T13:55:09;8.38;;;7.85;;
15878;SDS011;61999;51.514;14.614;2023-06-22T13:57:37;8.90;;;8.40;;
15878;SDS011;61999;51.514;14.614;2023-06-22T14:00:05;8.35;;;7.85;;
15878;SDS011;61999;51.514;14.614;2023-06-22T14:02:36;8.20;;;7.70;;
15878;SDS011;61999;51.514;14.614;2023-06-22T14:05:04;8.40;;;7.80;;
15878;SDS011;61999;51.514;14.614;2023-06-22T14:07:33;8.15;;;7.60;;
15878;SDS011;61999;51.514;14.614;2023-06-22T14:10:01;8.35;;;7.82;;
15878;SDS011;61999;51.514;14.614;2023-06-22T14:12:30;8.27;;;7.78;;
15878;SDS011;61999;51.514;14.614;2023-06-22T14:14:59;8.15;;;7.65;;
15878;SDS011;61999;51.514;14.614;2023-06-22T14:17:27;8.10;;;7.60;;
15878;SDS011;61999;51.514;14.614;2023-06-22T14:19:55;8.88;;;8.38;;
15878;SDS011;61999;51.514;14.614;2023-06-22T14:22:23;7.45;;;7.05;;
15878;SDS011;61999;51.514;14.614;2023-06-22T14:24:52;7.70;;;7.20;;
15878;SDS011;61999;51.514;14.614;2023-06-22T14:27:20;7.88;;;7.47;;
15878;SDS011;61999;51.514;14.614;2023-06-22T14:29:49;8.20;;;7.70;;
15878;SDS011;61999;51.514;14.614;2023-06-22T14:32:17;7.05;;;6.63;;
15878;SDS011;61999;51.514;14.614;2023-06-22T14:34:45;7.93;;;7.53;;
15878;SDS011;61999;51.514;14.614;2023-06-22T14:37:13;8.23;;;7.75;;